Charleston, SC

11:03 AM EDT on June 02, 2015 (GMT -0400)
Charleston Executive | | Change Station
CLOSE
Current Station
Airport
Location: Charleston,
Elevation: 16 ft
Nearby Weather Stations

Elev 16 ft 32.70 °N, 80.01 °W | Updated 8 minutes ago

Mostly Cloudy
Mostly Cloudy
81 °F
Feels Like 85 °F
N
5
Wind Variable Wind from West

Today
High -- | Low -- °F
--% Chance of Precip.
Yesterday
High -- | Low -- °F
Precip. -- in
6:12 AM 8:23 PM
Full, 100% visible
Pressure 30.04 in
Visibility 10.0 miles
Clouds Few 100 ft
Mostly Cloudy 2200 ft
Mostly Cloudy 2900 ft
Heat Index 85 °F
Dew Point 73 °F
Humidity 79%
Rainfall 0.00 in
Snow Depth Not available.
UV 5 out of 12
Pollen 4.10 out of 12
Air Quality Not available.
Flu Activity Local Activity
METAR KJZI 021455Z AUTO 26004KT 10SM FEW001 BKN022 BKN029 27/23 A3004 RMK A02 P000

More Conditions Fewer Conditions

Pressure 30.04 in
Visibility 10.0 miles
Clouds Few 100 ft
Mostly Cloudy 2200 ft
Mostly Cloudy 2900 ft
Heat Index 85 °F
Dew Point 73 °F
Humidity 79%
Rainfall 0.00 in
Snow Depth Not available.
UV 5 out of 12
Pollen 4.10 out of 12
Air Quality Not available.
Flu Activity Local Activity
METAR KJZI 021455Z AUTO 26004KT 10SM FEW001 BKN022 BKN029 27/23 A3004 RMK A02 P000

More Conditions Fewer Conditions

10-Day Weather Forecast

Almanac

Astronomy

Jun. 02, 2015 Rise Set
Actual Time
Civil Twilight
Nautical Twilight
Astronomical Twilight
Moon
Length of Visible Light
Length of Day
Tomorrow will be .
, % of the Moon is Illuminated

Today's Extremes

State Highs State Lows

Community

WunderPhotos

Upload Photos

1,825,934 photos uploaded!

WunderBlogs® & News

Nearby

Air Quality

  Air Quality AQ Index Pollutant
Not available.

Snow Depth

Station Depth Elevation

Earthquake Activity

City Distance Mag. Time & Date
Minimum magnitude displayed is 2.5.

Coastal Water Temperatures

Place Temperature

Stations

Nearby Weather Stations

Station Location Temp. Windchill Dew Point Humidity Wind Precip. Elev Updated Type